createdAt,value
2017-11-07T00:03:32.662Z,8.09
2017-11-07T00:06:00.327Z,8.51
2017-11-07T00:08:27.989Z,8.64
2017-11-07T00:10:55.618Z,8.82
2017-11-07T00:13:23.313Z,8.87
2017-11-07T00:15:51.003Z,8.85
2017-11-07T00:18:18.644Z,9.07
2017-11-07T00:20:46.264Z,9.27
2017-11-07T00:23:14.144Z,9.13
2017-11-07T00:25:41.758Z,9.21
2017-11-07T00:28:09.558Z,9.41
2017-11-07T00:30:37.392Z,9.33
2017-11-07T00:33:05.048Z,9.71
2017-11-07T00:35:32.632Z,9.46
2017-11-07T00:38:00.203Z,9.27
2017-11-07T00:40:27.942Z,9.25
2017-11-07T00:42:55.606Z,9.17
2017-11-07T00:45:23.420Z,8.92
2017-11-07T00:47:51.061Z,9.09
2017-11-07T00:50:18.864Z,9.20
2017-11-07T00:52:46.464Z,8.99
2017-11-07T00:55:14.116Z,9.00
2017-11-07T00:57:41.970Z,9.25
2017-11-07T01:00:09.799Z,9.39
2017-11-07T01:02:37.462Z,9.28
2017-11-07T01:05:05.040Z,9.04
2017-11-07T01:07:32.639Z,8.97
2017-11-07T01:10:00.265Z,8.87
2017-11-07T01:12:27.879Z,8.99
2017-11-07T01:14:55.497Z,9.27
2017-11-07T01:17:23.137Z,8.92
2017-11-07T01:19:50.940Z,9.08
2017-11-07T01:22:18.580Z,8.57
2017-11-07T01:24:46.261Z,8.78
2017-11-07T01:27:13.945Z,8.61
2017-11-07T01:29:41.509Z,8.96
2017-11-07T01:32:09.128Z,8.79
2017-11-07T01:34:36.688Z,9.22
2017-11-07T01:37:04.268Z,8.85
2017-11-07T01:39:31.875Z,8.82
2017-11-07T01:41:59.677Z,8.81
2017-11-07T01:44:27.470Z,8.76
2017-11-07T01:46:55.071Z,8.66
2017-11-07T01:49:22.872Z,8.70
2017-11-07T01:51:50.469Z,8.89
2017-11-07T01:54:18.055Z,8.86
2017-11-07T01:56:45.832Z,8.96
2017-11-07T01:59:13.430Z,8.43
2017-11-07T02:01:41.069Z,8.42
2017-11-07T02:06:35.590Z,8.65
2017-11-07T02:09:03.228Z,8.50
2017-11-07T02:11:30.987Z,8.69
2017-11-07T02:13:58.598Z,8.48
2017-11-07T02:16:26.243Z,8.41
2017-11-07T02:18:54.008Z,8.75
2017-11-07T02:21:21.667Z,8.70
2017-11-07T02:23:49.304Z,8.72
2017-11-07T02:26:17.126Z,8.73
2017-11-07T02:28:44.962Z,8.59
2017-11-07T02:31:12.623Z,8.48
2017-11-07T02:33:40.290Z,8.76
2017-11-07T02:36:07.942Z,8.71
2017-11-07T02:38:35.574Z,8.60
2017-11-07T02:41:03.262Z,8.99
2017-11-07T02:43:30.823Z,9.31
2017-11-07T02:45:58.495Z,8.68
2017-11-07T02:48:26.122Z,8.70
2017-11-07T02:50:53.717Z,8.62
2017-11-07T02:53:21.404Z,8.70
2017-11-07T02:55:48.994Z,8.84
2017-11-07T02:58:16.765Z,8.61
2017-11-07T03:00:44.388Z,8.55
2017-11-07T03:03:12.154Z,8.42
2017-11-07T03:05:39.811Z,8.57
2017-11-07T03:08:07.406Z,8.40
2017-11-07T03:10:35.184Z,8.72
2017-11-07T03:13:02.818Z,8.53
2017-11-07T03:15:30.456Z,8.47
2017-11-07T03:17:58.283Z,8.52
2017-11-07T03:20:25.845Z,8.53
2017-11-07T03:22:53.509Z,8.67
2017-11-07T03:25:21.043Z,8.57
2017-11-07T03:27:48.639Z,8.47
2017-11-07T03:30:16.267Z,8.24
2017-11-07T03:32:43.829Z,8.36
2017-11-07T03:35:11.393Z,8.29
2017-11-07T03:37:40.033Z,8.49
2017-11-07T03:40:07.842Z,8.26
2017-11-07T03:42:35.644Z,8.11
2017-11-07T03:45:03.303Z,8.47
2017-11-07T03:47:30.920Z,8.55
2017-11-07T03:49:58.565Z,8.63
2017-11-07T03:52:26.166Z,8.04
2017-11-07T03:54:53.831Z,8.33
2017-11-07T03:57:21.708Z,8.13
2017-11-07T03:59:49.358Z,8.26
2017-11-07T04:02:16.998Z,8.31
2017-11-07T04:04:44.780Z,8.46
2017-11-07T04:07:12.366Z,8.42
2017-11-07T04:09:40.183Z,8.30
2017-11-07T04:12:07.763Z,8.45
2017-11-07T04:14:35.440Z,8.44
2017-11-07T04:17:03.018Z,8.40
2017-11-07T04:19:30.581Z,8.30
2017-11-07T04:21:58.213Z,8.23
2017-11-07T04:24:26.005Z,8.33
2017-11-07T04:26:53.819Z,8.35
2017-11-07T04:29:21.443Z,8.52
2017-11-07T04:31:49.258Z,8.69
2017-11-07T04:34:17.035Z,8.43
2017-11-07T04:36:44.628Z,8.55
2017-11-07T04:39:12.530Z,8.29
2017-11-07T04:41:40.113Z,8.18
2017-11-07T04:44:07.728Z,7.97
2017-11-07T04:46:35.561Z,8.02
2017-11-07T04:49:03.354Z,8.03
2017-11-07T04:51:30.956Z,7.95
2017-11-07T04:53:58.636Z,7.81
2017-11-07T04:56:26.398Z,7.90
2017-11-07T04:58:54.735Z,7.53
2017-11-07T05:01:22.526Z,7.60
2017-11-07T05:03:50.190Z,7.81
2017-11-07T05:06:17.799Z,7.87
2017-11-07T05:08:45.615Z,7.86
2017-11-07T05:11:13.415Z,8.27
2017-11-07T05:13:42.784Z,8.33
2017-11-07T05:16:10.980Z,8.08
2017-11-07T05:18:38.633Z,8.41
2017-11-07T05:21:06.448Z,8.34
2017-11-07T05:23:34.218Z,8.48
2017-11-07T05:26:01.823Z,8.68
2017-11-07T05:28:29.507Z,8.75
2017-11-07T05:30:57.140Z,9.15
2017-11-07T05:33:24.935Z,9.09
2017-11-07T05:35:53.213Z,9.30
2017-11-07T05:38:21.008Z,9.59
2017-11-07T05:40:48.819Z,9.86
2017-11-07T05:43:16.480Z,9.98
2017-11-07T05:45:44.099Z,9.61
2017-11-07T05:48:11.730Z,9.66
2017-11-07T05:50:39.438Z,10.16
2017-11-07T05:53:07.233Z,10.47
2017-11-07T05:55:34.840Z,10.01
2017-11-07T05:58:02.438Z,10.66
2017-11-07T06:00:30.450Z,11.02
2017-11-07T06:02:58.218Z,11.16
2017-11-07T06:05:25.843Z,11.24
2017-11-07T06:07:53.513Z,11.39
2017-11-07T06:10:21.075Z,11.02
2017-11-07T06:12:48.805Z,10.97
2017-11-07T06:15:16.634Z,11.46
2017-11-07T06:17:44.329Z,11.63
2017-11-07T06:20:11.952Z,11.33
2017-11-07T06:22:39.511Z,12.05
2017-11-07T06:25:07.340Z,11.36
2017-11-07T06:27:35.004Z,11.39
2017-11-07T06:30:02.666Z,11.81
2017-11-07T06:32:30.457Z,12.03
2017-11-07T06:34:58.057Z,12.07
2017-11-07T06:37:25.665Z,12.19
2017-11-07T06:39:53.216Z,11.90
2017-11-07T06:42:20.827Z,12.24
2017-11-07T06:44:48.610Z,12.32
2017-11-07T06:47:16.232Z,12.33
2017-11-07T06:49:43.827Z,12.73
2017-11-07T06:52:11.600Z,12.38
2017-11-07T06:54:39.462Z,12.56
2017-11-07T06:57:07.135Z,13.03
2017-11-07T06:59:34.848Z,13.51
2017-11-07T07:02:02.693Z,13.69
2017-11-07T07:04:30.353Z,13.93
2017-11-07T07:06:57.972Z,14.35
2017-11-07T07:09:25.650Z,14.85
2017-11-07T07:11:53.488Z,14.90
2017-11-07T07:14:21.101Z,14.79
2017-11-07T07:16:48.686Z,13.95
2017-11-07T07:19:16.351Z,14.98
2017-11-07T07:21:44.236Z,15.79
2017-11-07T07:24:11.866Z,15.20
2017-11-07T07:26:39.671Z,15.50
2017-11-07T07:29:07.428Z,15.17
2017-11-07T07:31:35.219Z,15.65
2017-11-07T07:34:02.869Z,15.89
2017-11-07T07:36:30.521Z,16.24
2017-11-07T07:38:58.143Z,16.08
2017-11-07T07:41:25.895Z,15.62
2017-11-07T07:43:53.749Z,15.80
2017-11-07T07:46:21.330Z,15.02
2017-11-07T07:48:48.929Z,14.53
2017-11-07T07:51:16.575Z,14.20
2017-11-07T07:53:44.118Z,14.76
2017-11-07T07:56:11.931Z,15.24
2017-11-07T07:58:39.529Z,14.97
2017-11-07T08:01:07.324Z,15.25
2017-11-07T08:03:35.161Z,15.31
2017-11-07T08:06:02.862Z,15.09
2017-11-07T08:08:30.789Z,14.91
2017-11-07T08:10:58.447Z,15.23
2017-11-07T08:13:26.132Z,15.87
2017-11-07T08:15:53.919Z,15.74
2017-11-07T08:18:21.536Z,15.69
2017-11-07T08:20:49.295Z,15.22
2017-11-07T08:23:16.952Z,15.81
2017-11-07T08:25:44.550Z,15.00
2017-11-07T08:28:12.366Z,15.27
2017-11-07T08:30:39.907Z,15.42
2017-11-07T08:33:07.503Z,15.86
2017-11-07T08:35:35.327Z,16.33
2017-11-07T08:38:02.857Z,17.25
2017-11-07T08:40:30.471Z,17.09
2017-11-07T08:42:57.993Z,17.03
2017-11-07T08:45:25.774Z,17.73
2017-11-07T08:47:53.369Z,18.01
2017-11-07T08:50:20.892Z,18.68
2017-11-07T08:52:48.425Z,17.89
2017-11-07T08:55:16.040Z,18.99
2017-11-07T08:57:43.536Z,19.51
2017-11-07T09:00:11.047Z,18.98
2017-11-07T09:02:38.639Z,18.92
2017-11-07T09:05:06.182Z,19.52
2017-11-07T09:07:33.759Z,20.33
2017-11-07T09:10:02.155Z,20.92
2017-11-07T09:12:30.614Z,20.34
2017-11-07T09:14:58.115Z,20.40
2017-11-07T09:17:25.756Z,19.57
2017-11-07T09:19:53.332Z,20.94
2017-11-07T09:22:20.934Z,20.91
2017-11-07T09:24:48.614Z,20.30
2017-11-07T09:27:16.181Z,18.39
2017-11-07T09:29:43.970Z,19.94
2017-11-07T09:32:11.598Z,19.64
2017-11-07T09:34:39.139Z,19.09
2017-11-07T09:37:06.650Z,19.31
2017-11-07T09:39:34.239Z,20.11
2017-11-07T09:42:01.814Z,18.38
2017-11-07T09:44:29.356Z,18.42
2017-11-07T09:46:56.906Z,17.27
2017-11-07T09:49:24.407Z,17.26
2017-11-07T09:51:51.938Z,17.45
2017-11-07T09:54:19.499Z,17.02
2017-11-07T09:56:47.043Z,17.00
2017-11-07T09:59:14.565Z,16.98
2017-11-07T10:01:42.128Z,16.47
2017-11-07T10:04:09.727Z,16.42
2017-11-07T10:06:37.274Z,16.84
2017-11-07T10:09:04.846Z,15.61
2017-11-07T10:11:32.355Z,15.72
2017-11-07T10:13:59.948Z,15.56
2017-11-07T10:16:27.513Z,15.82
2017-11-07T10:18:55.050Z,15.70
2017-11-07T10:21:22.888Z,15.50
2017-11-07T10:23:50.438Z,14.72
2017-11-07T10:26:18.030Z,15.38
2017-11-07T10:28:46.483Z,15.05
2017-11-07T10:31:14.387Z,15.17
2017-11-07T10:33:41.974Z,15.03
2017-11-07T10:36:09.538Z,15.57
2017-11-07T10:38:37.132Z,15.98
2017-11-07T10:41:04.636Z,15.23
2017-11-07T10:43:32.154Z,15.07
2017-11-07T10:45:59.726Z,15.37
2017-11-07T10:48:27.280Z,15.07
2017-11-07T10:50:54.807Z,14.78
2017-11-07T10:53:22.406Z,14.40
2017-11-07T10:55:49.959Z,14.28
2017-11-07T10:58:17.536Z,14.40
2017-11-07T11:00:45.104Z,14.25
2017-11-07T11:03:12.735Z,14.35
2017-11-07T11:05:40.299Z,14.57
2017-11-07T11:08:07.875Z,14.68
2017-11-07T11:10:35.391Z,14.02
2017-11-07T11:13:02.896Z,14.23
2017-11-07T11:15:30.483Z,14.50
2017-11-07T11:17:58.076Z,14.97
2017-11-07T11:20:25.583Z,14.82
2017-11-07T11:22:53.342Z,15.10
2017-11-07T11:25:20.831Z,14.68
2017-11-07T11:27:48.339Z,15.27
2017-11-07T11:30:16.216Z,14.76
2017-11-07T11:32:43.856Z,15.23
2017-11-07T11:35:11.461Z,14.84
2017-11-07T11:37:39.110Z,15.01
2017-11-07T11:40:06.655Z,15.36
2017-11-07T11:42:34.206Z,15.06
2017-11-07T11:45:01.852Z,14.81
2017-11-07T11:47:29.603Z,14.61
2017-11-07T11:49:58.276Z,14.66
2017-11-07T11:52:25.954Z,14.45
2017-11-07T11:54:53.527Z,14.71
2017-11-07T11:57:21.080Z,13.99
2017-11-07T11:59:48.707Z,14.01
2017-11-07T12:02:16.314Z,13.79
2017-11-07T12:04:44.164Z,13.92
2017-11-07T12:07:11.719Z,14.23
2017-11-07T12:09:39.502Z,14.31
2017-11-07T12:12:07.235Z,13.97
2017-11-07T12:14:34.834Z,13.94
2017-11-07T12:17:02.407Z,13.92
2017-11-07T12:19:29.963Z,14.15
2017-11-07T12:21:57.560Z,13.70
2017-11-07T12:24:25.460Z,13.80
2017-11-07T12:26:53.192Z,13.56
2017-11-07T12:29:20.840Z,13.85
2017-11-07T12:31:48.560Z,14.06
2017-11-07T12:34:16.105Z,14.07
2017-11-07T12:36:43.763Z,14.43
2017-11-07T12:39:11.542Z,14.20
2017-11-07T12:41:39.155Z,14.45
2017-11-07T12:44:06.899Z,14.49
2017-11-07T12:46:34.421Z,14.65
2017-11-07T12:49:01.953Z,14.77
2017-11-07T12:54:35.375Z,14.59
2017-11-07T12:57:02.947Z,14.66
2017-11-07T12:59:30.606Z,14.65
2017-11-07T13:01:58.170Z,14.76
2017-11-07T13:04:25.703Z,14.58
2017-11-07T13:06:53.295Z,14.67
2017-11-07T13:09:20.921Z,14.33
2017-11-07T13:11:48.442Z,14.21
2017-11-07T13:14:16.360Z,14.48
2017-11-07T13:16:43.923Z,14.26
2017-11-07T13:19:11.488Z,14.28
2017-11-07T13:21:39.019Z,14.44
2017-11-07T13:24:06.660Z,13.97
2017-11-07T13:26:34.255Z,14.29
2017-11-07T13:29:01.854Z,14.04
2017-11-07T13:31:29.422Z,13.79
2017-11-07T13:33:57.092Z,13.58
2017-11-07T13:36:24.686Z,13.64
2017-11-07T13:38:52.343Z,13.93
2017-11-07T13:41:19.861Z,13.63
2017-11-07T13:43:47.419Z,13.63
2017-11-07T13:46:15.205Z,13.61
2017-11-07T13:48:42.820Z,13.57
2017-11-07T13:51:10.356Z,13.53
2017-11-07T13:53:37.957Z,13.50
2017-11-07T13:56:05.691Z,13.47
2017-11-07T13:58:33.283Z,13.23
2017-11-07T14:01:00.900Z,13.09
2017-11-07T14:03:28.411Z,12.81
2017-11-07T14:05:55.943Z,12.81
2017-11-07T14:08:23.547Z,12.79
2017-11-07T14:10:51.200Z,12.75
2017-11-07T14:13:18.745Z,12.52
2017-11-07T14:15:46.325Z,12.58
2017-11-07T14:18:13.894Z,12.41
2017-11-07T14:20:41.441Z,12.48
2017-11-07T14:23:09.060Z,12.53
2017-11-07T14:25:36.644Z,12.42
2017-11-07T14:28:04.170Z,12.35
2017-11-07T14:30:31.727Z,12.33
2017-11-07T14:32:59.304Z,12.45
2017-11-07T14:35:26.860Z,12.26
2017-11-07T14:37:54.402Z,12.15
2017-11-07T14:40:21.992Z,11.86
2017-11-07T14:42:49.883Z,11.85
2017-11-07T14:45:17.473Z,11.76
2017-11-07T14:47:45.204Z,11.88
2017-11-07T14:50:12.778Z,11.89
2017-11-07T14:52:40.571Z,11.76
2017-11-07T14:55:08.134Z,11.77
2017-11-07T14:57:35.695Z,11.89
2017-11-07T15:00:11.102Z,11.65
2017-11-07T15:02:38.677Z,11.61
2017-11-07T15:05:06.223Z,11.53
2017-11-07T15:07:33.810Z,11.47
2017-11-07T15:10:01.388Z,11.44
2017-11-07T15:12:29.159Z,11.49
2017-11-07T15:14:56.753Z,11.33
2017-11-07T15:17:24.315Z,11.14
2017-11-07T15:19:51.872Z,11.34
2017-11-07T15:22:19.428Z,11.13
2017-11-07T15:24:47.392Z,11.04
2017-11-07T15:27:15.232Z,11.05
2017-11-07T15:29:42.969Z,11.67
2017-11-07T15:32:10.914Z,11.46
2017-11-07T15:34:38.526Z,12.31
2017-11-07T15:37:06.233Z,11.85
2017-11-07T15:39:35.966Z,11.67
2017-11-07T15:42:03.523Z,11.57
2017-11-07T15:44:31.970Z,11.51
2017-11-07T15:46:59.550Z,11.25
2017-11-07T15:49:29.191Z,11.09
2017-11-07T15:51:56.719Z,11.28
2017-11-07T15:54:24.325Z,11.06
2017-11-07T15:56:51.884Z,10.96
2017-11-07T15:59:19.426Z,10.87
2017-11-07T16:01:46.987Z,10.99
2017-11-07T16:04:14.491Z,10.88
2017-11-07T16:06:42.121Z,10.80
2017-11-07T16:09:09.724Z,10.84
2017-11-07T16:11:37.303Z,10.79
2017-11-07T16:14:04.843Z,10.72
2017-11-07T16:16:32.431Z,10.70
2017-11-07T16:19:00.043Z,10.67
2017-11-07T16:21:27.547Z,10.89
2017-11-07T16:23:55.168Z,10.77
2017-11-07T16:26:22.735Z,10.69
2017-11-07T16:31:17.183Z,10.68
2017-11-07T16:33:44.842Z,10.54
2017-11-07T16:36:12.433Z,10.70
2017-11-07T16:38:40.019Z,10.56
2017-11-07T16:41:07.567Z,10.48
2017-11-07T16:43:35.159Z,10.32
2017-11-07T16:46:02.740Z,10.45
2017-11-07T16:48:30.521Z,10.27
2017-11-07T16:50:58.364Z,10.53
2017-11-07T16:53:26.836Z,10.35
2017-11-07T16:55:54.462Z,10.41
2017-11-07T16:58:21.983Z,10.51
2017-11-07T17:00:49.562Z,10.70
2017-11-07T17:03:17.139Z,10.65
2017-11-07T17:05:44.771Z,10.68
2017-11-07T17:08:12.346Z,10.53
2017-11-07T17:10:39.847Z,10.66
2017-11-07T17:13:07.412Z,10.56
2017-11-07T17:15:35.014Z,10.70
2017-11-07T17:18:02.651Z,10.74
2017-11-07T17:20:31.030Z,10.20
2017-11-07T17:22:58.610Z,10.39
2017-11-07T17:25:26.306Z,10.59
2017-11-07T17:27:54.195Z,10.51
2017-11-07T17:30:21.933Z,10.62
2017-11-07T17:32:49.591Z,10.83
2017-11-07T17:35:17.148Z,10.82
2017-11-07T17:37:44.723Z,10.89
2017-11-07T17:40:12.342Z,10.81
2017-11-07T17:42:39.922Z,10.62
2017-11-07T17:45:07.688Z,10.66
2017-11-07T17:47:35.263Z,10.63
2017-11-07T17:50:02.786Z,10.57
2017-11-07T17:52:30.428Z,10.68
2017-11-07T17:54:57.966Z,10.71
2017-11-07T17:57:25.697Z,10.63
2017-11-07T17:59:54.298Z,10.55
2017-11-07T18:02:21.986Z,10.53
2017-11-07T18:04:49.584Z,10.64
2017-11-07T18:07:17.618Z,10.49
2017-11-07T18:09:45.230Z,10.30
2017-11-07T18:12:12.978Z,10.50
2017-11-07T18:14:40.718Z,10.47
2017-11-07T18:17:08.852Z,10.43
2017-11-07T18:19:36.442Z,10.34
2017-11-07T18:22:04.061Z,10.55
2017-11-07T18:24:31.680Z,10.62
2017-11-07T18:26:59.207Z,10.24
2017-11-07T18:29:26.780Z,10.36
2017-11-07T18:31:54.376Z,10.31
2017-11-07T18:34:21.948Z,10.17
2017-11-07T18:36:49.570Z,10.23
2017-11-07T18:39:17.150Z,10.12
2017-11-07T18:41:44.668Z,10.27
2017-11-07T18:44:12.263Z,10.19
2017-11-07T18:46:39.836Z,10.19
2017-11-07T18:49:07.374Z,10.41
2017-11-07T18:51:35.206Z,10.27
2017-11-07T18:54:02.815Z,10.25
2017-11-07T18:56:30.406Z,10.16
2017-11-07T18:58:57.993Z,10.42
2017-11-07T19:01:25.595Z,10.42
2017-11-07T19:03:53.266Z,10.27
2017-11-07T19:06:20.800Z,10.34
2017-11-07T19:08:48.425Z,10.20
2017-11-07T19:11:15.983Z,10.18
2017-11-07T19:13:43.530Z,9.85
2017-11-07T19:16:11.210Z,10.06
2017-11-07T19:18:38.750Z,10.00
2017-11-07T19:21:06.371Z,10.18
2017-11-07T19:23:33.964Z,10.08
2017-11-07T19:26:02.030Z,10.29
2017-11-07T19:28:29.602Z,9.90
2017-11-07T19:30:58.119Z,9.82
2017-11-07T19:33:25.698Z,9.85
2017-11-07T19:35:53.535Z,9.69
2017-11-07T19:38:24.935Z,9.89
2017-11-07T19:40:52.558Z,9.88
2017-11-07T19:43:20.313Z,9.91
2017-11-07T19:45:47.934Z,9.82
2017-11-07T19:48:15.535Z,9.72
2017-11-07T19:50:43.166Z,9.78
2017-11-07T19:53:10.788Z,9.94
2017-11-07T19:55:38.561Z,9.86
2017-11-07T19:58:06.362Z,10.12
2017-11-07T20:00:34.227Z,10.22
2017-11-07T20:03:01.984Z,10.10
2017-11-07T20:05:29.538Z,9.94
2017-11-07T20:07:57.134Z,10.01
2017-11-07T20:10:24.674Z,10.09
2017-11-07T20:12:53.066Z,10.09
2017-11-07T20:15:20.666Z,10.10
2017-11-07T20:17:48.294Z,9.94
2017-11-07T20:20:15.838Z,10.15
2017-11-07T20:22:43.416Z,10.15
2017-11-07T20:25:10.978Z,10.27
2017-11-07T20:27:38.725Z,10.37
2017-11-07T20:30:10.871Z,10.29
2017-11-07T20:32:38.411Z,10.16
2017-11-07T20:35:05.942Z,9.94
2017-11-07T20:37:33.555Z,10.12
2017-11-07T20:40:01.164Z,9.98
2017-11-07T20:42:28.721Z,10.04
2017-11-07T20:44:56.330Z,10.00
2017-11-07T20:47:23.859Z,9.93
2017-11-07T20:49:51.405Z,10.00
2017-11-07T20:52:19.040Z,9.94
2017-11-07T20:54:46.851Z,9.95
2017-11-07T20:57:14.401Z,9.98
2017-11-07T20:59:41.986Z,10.12
2017-11-07T21:02:09.565Z,10.00
2017-11-07T21:04:37.085Z,9.92
2017-11-07T21:07:04.675Z,9.82
2017-11-07T21:09:32.313Z,9.88
2017-11-07T21:11:59.951Z,9.81
2017-11-07T21:14:27.474Z,10.05
2017-11-07T21:16:55.055Z,10.00
2017-11-07T21:19:22.605Z,9.98
2017-11-07T21:21:51.141Z,9.94
2017-11-07T21:24:18.778Z,9.94
2017-11-07T21:26:46.853Z,9.98
2017-11-07T21:29:14.379Z,10.08
2017-11-07T21:31:41.986Z,10.06
2017-11-07T21:34:09.499Z,10.08
2017-11-07T21:36:37.010Z,9.95
2017-11-07T21:39:05.484Z,9.90
2017-11-07T21:41:33.044Z,9.92
2017-11-07T21:44:00.620Z,9.98
2017-11-07T21:46:28.219Z,10.11
2017-11-07T21:48:55.806Z,10.25
2017-11-07T21:51:23.635Z,10.15
2017-11-07T21:53:51.194Z,10.23
2017-11-07T21:56:18.811Z,10.14
2017-11-07T21:58:46.352Z,10.21
2017-11-07T22:01:13.930Z,10.27
2017-11-07T22:03:41.499Z,10.34
2017-11-07T22:06:09.070Z,10.30
2017-11-07T22:08:36.647Z,10.13
2017-11-07T22:11:04.187Z,10.34
2017-11-07T22:13:31.738Z,10.27
2017-11-07T22:15:59.387Z,10.27
2017-11-07T22:18:26.908Z,10.24
2017-11-07T22:20:54.548Z,10.31
2017-11-07T22:23:25.971Z,10.16
2017-11-07T22:25:53.505Z,10.03
2017-11-07T22:28:21.028Z,9.92
2017-11-07T22:30:48.615Z,9.98
2017-11-07T22:33:16.179Z,9.99
2017-11-07T22:35:43.714Z,10.18
2017-11-07T22:38:11.396Z,10.07
2017-11-07T22:40:38.927Z,10.07
2017-11-07T22:43:06.454Z,10.14
2017-11-07T22:45:34.104Z,10.17
2017-11-07T22:48:01.631Z,10.16
2017-11-07T22:50:29.147Z,10.08
2017-11-07T22:52:56.775Z,10.26
2017-11-07T22:55:24.539Z,10.11
2017-11-07T22:57:52.167Z,10.27
2017-11-07T23:00:19.771Z,10.15
2017-11-07T23:02:47.363Z,10.25
2017-11-07T23:05:14.887Z,10.28
2017-11-07T23:07:42.464Z,10.32
2017-11-07T23:10:10.044Z,10.19
2017-11-07T23:12:37.607Z,10.23
2017-11-07T23:15:05.227Z,10.31
2017-11-07T23:17:33.003Z,10.23
2017-11-07T23:20:00.537Z,10.44
2017-11-07T23:22:28.138Z,10.38
2017-11-07T23:24:55.660Z,10.49
2017-11-07T23:27:23.193Z,10.61
2017-11-07T23:29:50.781Z,10.68
2017-11-07T23:32:18.415Z,10.69
2017-11-07T23:34:46.034Z,10.74
2017-11-07T23:37:13.559Z,10.75
2017-11-07T23:39:41.210Z,10.86
2017-11-07T23:42:08.736Z,10.87
2017-11-07T23:44:36.286Z,10.67
2017-11-07T23:47:03.874Z,10.70
2017-11-07T23:49:31.440Z,10.80
2017-11-07T23:51:58.963Z,10.82
2017-11-07T23:54:26.538Z,10.57
2017-11-07T23:56:54.064Z,10.65
2017-11-07T23:59:21.582Z,10.52
